createdAt,value
2022-10-31T00:00:24.947Z,10.10
2022-10-31T00:02:28.148Z,13.37
2022-10-31T00:04:31.542Z,13.93
2022-10-31T00:06:34.758Z,10.17
2022-10-31T00:08:36.983Z,10.53
2022-10-31T00:10:44.813Z,12.60
2022-10-31T00:12:47.979Z,12.40
2022-10-31T00:14:51.120Z,13.40
2022-10-31T00:16:54.487Z,11.77
2022-10-31T00:18:59.153Z,12.97
2022-10-31T00:21:03.794Z,19.53
2022-10-31T00:23:07.956Z,11.07
2022-10-31T00:25:10.936Z,12.13
2022-10-31T00:27:15.480Z,16.40
2022-10-31T00:29:18.705Z,9.83
2022-10-31T00:31:21.761Z,10.23
2022-10-31T00:33:26.419Z,13.20
2022-10-31T00:35:31.073Z,20.97
2022-10-31T00:37:34.295Z,10.57
2022-10-31T00:39:37.413Z,18.20
2022-10-31T00:41:40.460Z,13.70
2022-10-31T00:43:50.190Z,11.60
2022-10-31T00:45:53.352Z,8.20
2022-10-31T00:47:56.826Z,10.27
2022-10-31T00:50:00.100Z,10.40
2022-10-31T00:52:03.295Z,13.30
2022-10-31T00:54:06.442Z,10.93
2022-10-31T00:56:09.486Z,14.20
2022-10-31T00:58:12.539Z,9.47
2022-10-31T01:00:18.018Z,13.33
2022-10-31T01:02:21.292Z,10.80
2022-10-31T01:04:25.894Z,12.03
2022-10-31T01:06:29.148Z,10.33
2022-10-31T01:08:33.999Z,12.53
2022-10-31T01:10:37.303Z,13.20
2022-10-31T01:12:40.771Z,14.40
2022-10-31T01:14:45.353Z,11.03
2022-10-31T01:16:49.748Z,15.43
2022-10-31T01:18:53.123Z,10.53
2022-10-31T01:21:03.198Z,12.10
2022-10-31T01:23:06.184Z,9.17
2022-10-31T01:25:10.390Z,9.57
2022-10-31T01:27:13.630Z,9.50
2022-10-31T01:29:17.058Z,10.33
2022-10-31T01:31:21.774Z,9.17
2022-10-31T01:33:26.574Z,12.87
2022-10-31T01:35:30.599Z,13.83
2022-10-31T01:37:33.618Z,9.20
2022-10-31T01:39:36.613Z,10.10
2022-10-31T01:41:41.638Z,10.97
2022-10-31T01:43:46.669Z,9.43
2022-10-31T01:45:53.541Z,8.33
2022-10-31T01:47:56.803Z,9.37
2022-10-31T01:50:03.222Z,9.50
2022-10-31T01:52:07.650Z,10.80
2022-10-31T01:54:15.064Z,11.33
2022-10-31T01:56:18.831Z,10.27
2022-10-31T01:58:25.406Z,10.50
2022-10-31T02:00:28.403Z,9.13
2022-10-31T02:02:32.451Z,9.90
2022-10-31T02:04:36.329Z,9.90
2022-10-31T02:06:47.784Z,13.63
2022-10-31T02:08:51.052Z,8.50
2022-10-31T02:10:54.148Z,9.30
2022-10-31T02:12:59.331Z,10.60
2022-10-31T02:15:02.866Z,9.70
2022-10-31T02:17:05.893Z,10.57
2022-10-31T02:19:10.451Z,12.17
2022-10-31T02:21:17.687Z,10.90
2022-10-31T02:23:53.515Z,11.97
2022-10-31T02:26:13.755Z,13.07
2022-10-31T02:28:33.809Z,10.07
2022-10-31T02:30:43.370Z,11.33
2022-10-31T02:32:55.249Z,9.80
2022-10-31T02:35:01.384Z,11.30
2022-10-31T02:37:10.971Z,11.67
2022-10-31T02:39:16.351Z,8.83
2022-10-31T02:41:23.726Z,9.60
2022-10-31T02:43:33.277Z,8.17
2022-10-31T02:45:42.909Z,8.70
2022-10-31T02:47:47.062Z,10.27
2022-10-31T02:49:57.721Z,11.57
2022-10-31T02:52:00.892Z,11.70
2022-10-31T02:54:03.953Z,8.77
2022-10-31T02:56:11.196Z,12.13
2022-10-31T03:00:21.258Z,13.80
2022-10-31T03:02:48.774Z,8.50
2022-10-31T03:05:03.579Z,9.50
2022-10-31T03:07:10.961Z,9.43
2022-10-31T03:09:22.885Z,9.57
2022-10-31T03:11:32.068Z,9.53
2022-10-31T03:13:37.592Z,12.80
2022-10-31T03:15:43.800Z,13.53
2022-10-31T03:17:53.819Z,8.27
2022-10-31T03:20:00.877Z,10.13
2022-10-31T03:22:06.779Z,10.83
2022-10-31T03:24:11.790Z,8.07
2022-10-31T03:26:17.507Z,7.97
2022-10-31T03:28:24.249Z,10.20
2022-10-31T03:30:27.310Z,8.13
2022-10-31T03:32:36.886Z,7.93
2022-10-31T03:34:42.082Z,9.30
2022-10-31T03:36:46.945Z,8.07
2022-10-31T03:38:50.001Z,9.93
2022-10-31T03:40:56.137Z,11.93
2022-10-31T03:43:02.128Z,10.07
2022-10-31T03:45:08.722Z,8.20
2022-10-31T03:47:12.112Z,8.23
2022-10-31T03:49:15.598Z,9.77
2022-10-31T03:51:24.978Z,10.50
2022-10-31T03:53:34.835Z,8.43
2022-10-31T03:55:42.398Z,8.90
2022-10-31T03:57:53.773Z,11.07
2022-10-31T04:00:01.214Z,12.57
2022-10-31T04:02:07.511Z,9.60
2022-10-31T04:04:11.567Z,10.23
2022-10-31T04:06:16.917Z,11.07
2022-10-31T04:08:24.022Z,11.33
2022-10-31T04:10:32.890Z,10.57
2022-10-31T04:12:37.669Z,9.60
2022-10-31T04:14:51.530Z,8.17
2022-10-31T04:16:54.662Z,8.37
2022-10-31T04:19:04.966Z,8.93
2022-10-31T04:21:09.301Z,9.30
2022-10-31T04:23:18.954Z,13.13
2022-10-31T04:25:22.127Z,10.20
2022-10-31T04:27:26.914Z,13.33
2022-10-31T04:29:30.040Z,12.33
2022-10-31T04:31:34.120Z,9.60
2022-10-31T04:33:37.060Z,10.83
2022-10-31T04:35:40.025Z,8.90
2022-10-31T04:37:43.088Z,13.53
2022-10-31T04:39:46.052Z,9.20
2022-10-31T04:42:07.616Z,7.80
2022-10-31T04:44:12.111Z,11.80
2022-10-31T04:46:15.110Z,10.43
2022-10-31T04:48:18.650Z,11.67
2022-10-31T04:50:22.114Z,9.77
2022-10-31T04:52:25.096Z,9.30
2022-10-31T04:54:28.980Z,11.80
2022-10-31T04:56:57.939Z,7.70
2022-10-31T04:59:00.980Z,8.37
2022-10-31T05:01:10.575Z,9.13
2022-10-31T05:03:13.701Z,7.30
2022-10-31T05:05:18.295Z,11.00
2022-10-31T05:07:21.800Z,8.93
2022-10-31T05:09:25.951Z,9.53
2022-10-31T05:11:29.422Z,12.07
2022-10-31T05:13:41.762Z,9.00
2022-10-31T05:16:07.929Z,8.33
2022-10-31T05:18:18.521Z,9.60
2022-10-31T05:20:40.235Z,7.60
2022-10-31T05:22:54.112Z,9.83
2022-10-31T05:24:57.272Z,9.33
2022-10-31T05:27:00.170Z,16.50
2022-10-31T05:29:03.101Z,7.63
2022-10-31T05:31:06.609Z,12.03
2022-10-31T05:33:09.605Z,7.70
2022-10-31T05:35:25.949Z,11.20
2022-10-31T05:37:46.555Z,14.63
2022-10-31T05:39:49.785Z,8.50
2022-10-31T05:41:54.118Z,8.80
2022-10-31T05:44:01.736Z,9.47
2022-10-31T05:46:06.914Z,10.27
2022-10-31T05:48:28.380Z,9.83
2022-10-31T05:50:51.544Z,6.90
2022-10-31T05:52:58.143Z,8.80
2022-10-31T05:55:07.481Z,10.00
2022-10-31T05:57:10.503Z,7.40
2022-10-31T05:59:13.831Z,7.70
2022-10-31T06:01:17.303Z,8.67
2022-10-31T06:03:22.087Z,8.57
2022-10-31T06:05:33.482Z,9.53
2022-10-31T06:07:38.698Z,11.03
2022-10-31T06:09:42.001Z,8.17
2022-10-31T06:11:44.970Z,6.73
2022-10-31T06:14:08.230Z,7.27
2022-10-31T06:16:19.759Z,6.40
2022-10-31T06:18:22.821Z,9.47
2022-10-31T06:20:28.357Z,7.60
2022-10-31T06:22:40.141Z,9.07
2022-10-31T06:24:43.091Z,9.20
2022-10-31T06:27:01.940Z,8.90
2022-10-31T06:29:05.248Z,9.23
2022-10-31T06:31:31.410Z,7.43
2022-10-31T06:33:34.914Z,6.93
2022-10-31T06:35:38.515Z,8.13
2022-10-31T06:37:44.458Z,8.07
2022-10-31T06:40:04.183Z,8.60
2022-10-31T06:42:12.940Z,7.33
2022-10-31T06:44:16.096Z,8.40
2022-10-31T06:46:21.958Z,8.27
2022-10-31T06:48:37.513Z,8.83
2022-10-31T06:50:59.787Z,8.40
2022-10-31T06:53:05.003Z,9.67
2022-10-31T06:55:08.576Z,6.50
2022-10-31T06:57:11.920Z,7.53
2022-10-31T06:59:15.884Z,10.00
2022-10-31T07:01:37.845Z,8.97
2022-10-31T07:03:41.201Z,11.87
2022-10-31T07:05:45.334Z,10.37
2022-10-31T07:07:48.734Z,10.07
2022-10-31T07:09:53.290Z,14.73
2022-10-31T07:12:07.610Z,10.03
2022-10-31T07:14:14.535Z,16.03
2022-10-31T07:16:18.557Z,8.20
2022-10-31T07:18:23.169Z,8.30
2022-10-31T07:20:26.144Z,11.80
2022-10-31T07:22:34.679Z,10.00
2022-10-31T07:24:37.720Z,7.70
2022-10-31T07:26:57.236Z,19.33
2022-10-31T07:29:01.067Z,14.20
2022-10-31T07:31:04.913Z,16.07
2022-10-31T07:33:08.252Z,21.03
2022-10-31T07:35:31.402Z,20.20
2022-10-31T07:37:35.609Z,19.47
2022-10-31T07:39:38.783Z,11.43
2022-10-31T07:41:43.269Z,15.70
2022-10-31T07:43:48.073Z,12.97
2022-10-31T07:45:54.255Z,12.10
2022-10-31T07:48:20.372Z,12.13
2022-10-31T07:50:49.714Z,12.93
2022-10-31T07:53:00.609Z,15.00
2022-10-31T07:55:24.005Z,16.07
2022-10-31T07:57:31.912Z,13.43
2022-10-31T07:59:38.778Z,10.53
2022-10-31T08:01:43.229Z,10.17
2022-10-31T08:04:04.821Z,14.10
2022-10-31T08:06:28.672Z,14.27
2022-10-31T08:08:50.182Z,11.73
2022-10-31T08:10:54.379Z,11.20
2022-10-31T08:12:58.901Z,13.73
2022-10-31T08:15:03.721Z,11.37
2022-10-31T08:17:06.874Z,17.97
2022-10-31T08:19:18.754Z,18.87
2022-10-31T08:21:21.746Z,11.67
2022-10-31T08:23:24.891Z,15.97
2022-10-31T08:25:35.291Z,11.87
2022-10-31T08:27:41.483Z,13.33
2022-10-31T08:29:52.246Z,10.37
2022-10-31T08:31:56.662Z,10.17
2022-10-31T08:34:18.413Z,10.77
2022-10-31T08:36:45.884Z,10.53
2022-10-31T08:39:01.874Z,12.33
2022-10-31T08:41:06.407Z,8.53
2022-10-31T08:43:13.688Z,10.13
2022-10-31T08:45:17.048Z,14.20
2022-10-31T08:47:21.395Z,13.23
2022-10-31T08:49:24.887Z,9.33
2022-10-31T08:51:28.476Z,11.40
2022-10-31T08:53:33.153Z,19.47
2022-10-31T08:55:57.196Z,12.43
2022-10-31T08:58:02.375Z,22.17
2022-10-31T09:00:14.058Z,12.40
2022-10-31T09:02:46.675Z,11.17
2022-10-31T09:04:51.775Z,10.30
2022-10-31T09:07:24.919Z,12.73
2022-10-31T09:09:24.388Z,10.40
2022-10-31T09:11:28.987Z,10.53
2022-10-31T09:13:47.968Z,15.50
2022-10-31T09:16:26.128Z,13.13
2022-10-31T09:18:32.854Z,11.17
2022-10-31T09:20:41.192Z,9.77
2022-10-31T09:22:44.695Z,11.73
2022-10-31T09:24:47.992Z,13.60
2022-10-31T09:26:51.035Z,11.57
2022-10-31T09:29:02.869Z,13.40
2022-10-31T09:31:06.873Z,10.80
2022-10-31T09:33:36.470Z,10.33
2022-10-31T09:36:00.548Z,11.30
2022-10-31T09:38:05.588Z,13.37
2022-10-31T09:40:10.469Z,10.60
2022-10-31T09:42:45.901Z,12.30
2022-10-31T09:45:03.509Z,11.10
2022-10-31T09:47:16.518Z,10.80
2022-10-31T09:49:42.178Z,12.13
2022-10-31T09:51:52.701Z,11.13
2022-10-31T09:54:07.361Z,10.93
2022-10-31T09:56:13.009Z,11.90
2022-10-31T09:58:18.565Z,11.33
2022-10-31T10:00:24.018Z,12.50
2022-10-31T10:02:31.443Z,11.00
2022-10-31T10:04:43.866Z,13.60
2022-10-31T10:07:00.355Z,10.40
2022-10-31T10:09:26.493Z,13.43
2022-10-31T10:11:57.368Z,14.13
2022-10-31T10:14:10.034Z,12.13
2022-10-31T10:16:28.176Z,12.50
2022-10-31T10:18:40.899Z,17.90
2022-10-31T10:20:57.128Z,12.23
2022-10-31T10:23:14.172Z,13.33
2022-10-31T10:25:25.505Z,14.87
2022-10-31T10:27:38.635Z,11.00
2022-10-31T10:29:48.565Z,12.80
2022-10-31T10:31:55.621Z,11.60
2022-10-31T10:34:09.752Z,16.17
2022-10-31T10:36:16.566Z,14.03
2022-10-31T10:38:26.231Z,11.90
2022-10-31T10:40:29.977Z,12.83
2022-10-31T10:42:50.695Z,13.83
2022-10-31T10:45:11.184Z,12.93
2022-10-31T10:47:33.432Z,14.83
2022-10-31T10:49:42.522Z,12.20
2022-10-31T10:52:02.185Z,11.77
2022-10-31T10:54:38.625Z,15.53
2022-10-31T10:56:53.295Z,13.60
2022-10-31T10:58:57.405Z,12.50
2022-10-31T11:01:03.485Z,15.37
2022-10-31T11:03:07.128Z,15.83
2022-10-31T11:05:17.957Z,16.30
2022-10-31T11:07:22.731Z,14.53
2022-10-31T11:09:25.958Z,14.17
2022-10-31T11:11:32.036Z,16.03
2022-10-31T11:13:36.701Z,13.60
2022-10-31T11:15:51.458Z,15.93
2022-10-31T11:17:56.890Z,13.83
2022-10-31T11:20:08.413Z,16.38
2022-10-31T11:22:18.660Z,12.23
2022-10-31T11:24:26.375Z,15.33
2022-10-31T11:26:29.594Z,13.60
2022-10-31T11:28:36.084Z,11.70
2022-10-31T11:30:46.136Z,17.20
2022-10-31T11:32:53.417Z,15.63
2022-10-31T11:34:58.554Z,15.37
2022-10-31T11:37:05.449Z,27.30
2022-10-31T11:39:18.658Z,15.13
2022-10-31T11:41:29.157Z,12.27
2022-10-31T11:43:32.361Z,12.23
2022-10-31T11:45:37.750Z,11.70
2022-10-31T11:47:44.205Z,10.10
2022-10-31T11:49:50.365Z,12.20
2022-10-31T11:51:56.327Z,23.30
2022-10-31T11:54:03.218Z,14.23
2022-10-31T11:56:12.472Z,13.83
2022-10-31T11:58:25.553Z,17.33
2022-10-31T12:00:31.126Z,15.03
2022-10-31T12:02:34.206Z,16.90
2022-10-31T12:04:42.301Z,12.20
2022-10-31T12:06:47.874Z,10.93
2022-10-31T12:08:51.322Z,14.17
2022-10-31T12:11:02.582Z,18.80
2022-10-31T12:13:13.670Z,11.23
2022-10-31T12:15:29.321Z,12.77
2022-10-31T12:17:38.511Z,11.43
2022-10-31T12:19:45.174Z,13.43
2022-10-31T12:21:58.655Z,14.37
2022-10-31T12:24:10.086Z,15.90
2022-10-31T12:26:18.522Z,16.37
2022-10-31T12:28:46.443Z,13.93
2022-10-31T12:31:00.156Z,13.17
2022-10-31T12:33:19.049Z,13.97
2022-10-31T12:35:44.000Z,14.93
2022-10-31T12:38:00.777Z,13.37
2022-10-31T12:40:34.138Z,12.77
2022-10-31T12:42:50.824Z,12.77
2022-10-31T12:45:03.856Z,14.33
2022-10-31T12:47:21.253Z,13.70
2022-10-31T12:49:41.119Z,13.17
2022-10-31T12:51:51.762Z,14.33
2022-10-31T12:54:16.326Z,11.83
2022-10-31T12:56:38.661Z,15.47
2022-10-31T12:58:47.770Z,17.37
2022-10-31T13:00:53.768Z,14.53
2022-10-31T13:02:59.849Z,15.83
2022-10-31T13:05:06.918Z,17.33
2022-10-31T13:07:13.561Z,13.80
2022-10-31T13:09:20.109Z,14.50
2022-10-31T13:11:26.135Z,18.30
2022-10-31T13:13:33.443Z,10.70
2022-10-31T13:15:46.996Z,13.27
2022-10-31T13:17:52.217Z,16.50
2022-10-31T13:20:05.612Z,13.23
2022-10-31T13:22:10.764Z,14.57
2022-10-31T13:24:18.422Z,23.10
2022-10-31T13:26:26.101Z,12.63
2022-10-31T13:28:35.809Z,16.07
2022-10-31T13:30:41.948Z,15.57
2022-10-31T13:32:47.929Z,15.50
2022-10-31T13:34:58.148Z,17.27
2022-10-31T13:37:08.496Z,19.73
2022-10-31T13:39:22.848Z,17.80
2022-10-31T13:41:34.806Z,11.97
2022-10-31T13:43:49.189Z,15.80
2022-10-31T13:45:53.860Z,15.20
2022-10-31T13:47:59.453Z,19.40
2022-10-31T13:50:08.086Z,13.17
2022-10-31T13:52:19.013Z,13.17
2022-10-31T13:54:24.596Z,17.17
2022-10-31T13:56:29.589Z,17.00
2022-10-31T13:58:33.928Z,16.30
2022-10-31T14:00:37.371Z,18.47
2022-10-31T14:02:48.370Z,17.50
2022-10-31T14:07:00.823Z,11.97
2022-10-31T14:09:05.482Z,17.10
2022-10-31T14:11:22.219Z,21.57
2022-10-31T14:13:32.776Z,13.70
2022-10-31T14:15:36.758Z,12.97
2022-10-31T14:17:53.998Z,10.60
2022-10-31T14:20:22.523Z,16.20
2022-10-31T14:22:25.743Z,14.70
2022-10-31T14:24:38.374Z,16.20
2022-10-31T14:26:42.167Z,15.27
2022-10-31T14:28:45.955Z,22.53
2022-10-31T14:30:58.861Z,19.33
2022-10-31T14:33:05.069Z,14.27
2022-10-31T14:35:20.296Z,17.73
2022-10-31T14:37:53.911Z,16.33
2022-10-31T14:40:08.572Z,17.10
2022-10-31T14:42:21.887Z,29.60
2022-10-31T14:45:03.210Z,15.97
2022-10-31T14:47:15.093Z,15.10
2022-10-31T14:49:27.515Z,17.23
2022-10-31T14:51:35.959Z,14.20
2022-10-31T14:53:46.360Z,18.67
2022-10-31T14:55:55.213Z,12.00
2022-10-31T14:58:02.138Z,13.40
2022-10-31T15:00:07.944Z,13.50
2022-10-31T15:02:15.722Z,16.10
2022-10-31T15:04:25.058Z,15.90
2022-10-31T15:06:33.652Z,16.37
2022-10-31T15:08:40.431Z,17.20
2022-10-31T15:10:47.083Z,18.00
2022-10-31T15:12:51.612Z,21.00
2022-10-31T15:14:55.053Z,15.97
2022-10-31T15:16:59.632Z,16.40
2022-10-31T15:19:17.495Z,20.97
2022-10-31T15:21:22.565Z,17.60
2022-10-31T15:23:27.030Z,15.63
2022-10-31T15:25:33.123Z,14.60
2022-10-31T15:27:36.326Z,15.73
2022-10-31T15:29:50.627Z,14.17
2022-10-31T15:31:55.372Z,17.23
2022-10-31T15:34:02.273Z,17.43
2022-10-31T15:36:05.764Z,18.63
2022-10-31T15:38:10.378Z,19.53
2022-10-31T15:40:17.903Z,18.87
2022-10-31T15:42:23.791Z,16.27
2022-10-31T15:44:31.197Z,18.97
2022-10-31T15:46:35.895Z,22.20
2022-10-31T15:48:40.180Z,19.37
2022-10-31T15:50:47.411Z,19.80
2022-10-31T15:52:51.307Z,23.97
2022-10-31T15:54:57.444Z,15.10
2022-10-31T15:57:02.896Z,17.93
2022-10-31T15:59:07.077Z,14.60
2022-10-31T16:01:23.228Z,17.20
2022-10-31T16:03:29.358Z,14.90
2022-10-31T16:05:38.101Z,16.47
2022-10-31T16:07:50.540Z,14.63
2022-10-31T16:09:56.931Z,22.00
2022-10-31T16:12:01.026Z,18.83
2022-10-31T16:14:08.141Z,16.17
2022-10-31T16:16:34.179Z,15.87
2022-10-31T16:18:41.174Z,14.90
2022-10-31T16:20:53.620Z,15.10
2022-10-31T16:22:58.379Z,20.23
2022-10-31T16:25:07.908Z,20.23
2022-10-31T16:27:20.423Z,28.33
2022-10-31T16:29:30.054Z,17.67
2022-10-31T16:31:38.926Z,20.53
2022-10-31T16:33:44.301Z,17.50
2022-10-31T16:35:47.363Z,20.20
2022-10-31T16:37:50.508Z,19.50
2022-10-31T16:39:53.457Z,21.40
2022-10-31T16:41:57.950Z,21.37
2022-10-31T16:44:02.877Z,19.27
2022-10-31T16:46:06.112Z,14.43
2022-10-31T16:48:15.795Z,22.70
2022-10-31T16:50:22.794Z,21.67
2022-10-31T16:52:25.871Z,28.93
2022-10-31T16:54:30.835Z,111.63
2022-10-31T16:56:36.405Z,78.33
2022-10-31T16:58:39.557Z,244.27
2022-10-31T17:00:42.725Z,99.03
2022-10-31T17:02:46.262Z,151.83
2022-10-31T17:04:52.172Z,204.97
2022-10-31T17:07:00.054Z,169.13
2022-10-31T17:09:03.466Z,107.13
2022-10-31T17:11:07.284Z,42.70
2022-10-31T17:13:16.548Z,46.83
2022-10-31T17:15:21.343Z,16.17
2022-10-31T17:17:24.360Z,15.60
2022-10-31T17:19:27.583Z,17.37
2022-10-31T17:21:30.863Z,29.37
2022-10-31T17:23:35.961Z,24.83
2022-10-31T17:25:39.269Z,25.50
2022-10-31T17:27:44.947Z,20.43
2022-10-31T17:29:50.433Z,17.60
2022-10-31T17:31:53.457Z,19.40
2022-10-31T17:34:02.145Z,18.10
2022-10-31T17:36:07.601Z,18.50
2022-10-31T17:38:10.580Z,18.30
2022-10-31T17:40:17.030Z,16.43
2022-10-31T17:42:20.036Z,20.50
2022-10-31T17:44:23.073Z,17.90
2022-10-31T17:46:26.175Z,21.30
2022-10-31T17:48:29.405Z,26.20
2022-10-31T17:50:32.537Z,15.07
2022-10-31T17:52:35.756Z,16.00
2022-10-31T17:54:38.746Z,17.30
2022-10-31T17:56:43.215Z,17.07
2022-10-31T17:58:46.256Z,17.60
2022-10-31T18:00:51.336Z,18.80
2022-10-31T18:02:54.641Z,19.50
2022-10-31T18:04:57.723Z,22.87
2022-10-31T18:07:00.872Z,25.50
2022-10-31T18:09:04.659Z,20.37
2022-10-31T18:11:09.963Z,19.63
2022-10-31T18:13:14.861Z,18.87
2022-10-31T18:15:18.708Z,17.57
2022-10-31T18:17:22.385Z,23.27
2022-10-31T18:19:25.915Z,22.60
2022-10-31T18:21:29.470Z,20.37
2022-10-31T18:23:32.732Z,17.80
2022-10-31T18:25:38.837Z,20.63
2022-10-31T18:27:41.873Z,26.77
2022-10-31T18:29:46.289Z,36.63
2022-10-31T18:31:51.303Z,41.83
2022-10-31T18:33:54.570Z,25.63
2022-10-31T18:35:57.861Z,24.57
2022-10-31T18:38:03.219Z,28.73
2022-10-31T18:40:08.449Z,29.83
2022-10-31T18:42:12.879Z,25.23
2022-10-31T18:44:17.051Z,19.73
2022-10-31T18:46:22.448Z,23.90
2022-10-31T18:48:28.334Z,20.93
2022-10-31T18:50:32.188Z,21.60
2022-10-31T18:52:35.834Z,19.80
2022-10-31T18:54:39.314Z,19.43
2022-10-31T18:56:42.570Z,20.57
2022-10-31T18:58:45.566Z,22.03
2022-10-31T19:00:48.718Z,19.80
2022-10-31T19:02:56.359Z,20.23
2022-10-31T19:04:59.751Z,24.23
2022-10-31T19:07:02.995Z,24.43
2022-10-31T19:09:09.382Z,46.90
2022-10-31T19:11:13.932Z,38.10
2022-10-31T19:13:16.983Z,33.83
2022-10-31T19:15:20.034Z,52.77
2022-10-31T19:17:25.080Z,46.77
2022-10-31T19:19:29.689Z,22.87
2022-10-31T19:21:32.955Z,20.63
2022-10-31T19:23:36.424Z,22.17
2022-10-31T19:25:39.613Z,23.77
2022-10-31T19:27:42.866Z,24.83
2022-10-31T19:29:45.936Z,20.57
2022-10-31T19:31:49.401Z,20.50
2022-10-31T19:33:52.782Z,27.67
2022-10-31T19:36:00.413Z,23.23
2022-10-31T19:38:03.783Z,25.20
2022-10-31T19:40:10.102Z,31.40
2022-10-31T19:42:13.607Z,27.47
2022-10-31T19:44:16.763Z,25.70
2022-10-31T19:46:33.826Z,25.23
2022-10-31T19:48:44.461Z,23.57
2022-10-31T19:50:47.515Z,25.23
2022-10-31T19:52:51.874Z,23.00
2022-10-31T19:54:55.050Z,29.13
2022-10-31T19:56:58.043Z,26.47
2022-10-31T19:59:02.966Z,25.17
2022-10-31T20:01:08.932Z,27.07
2022-10-31T20:03:12.302Z,31.23
2022-10-31T20:05:15.545Z,25.13
2022-10-31T20:07:18.496Z,26.33
2022-10-31T20:09:22.946Z,23.70
2022-10-31T20:11:27.734Z,34.60
2022-10-31T20:13:31.929Z,31.77
2022-10-31T20:15:35.356Z,38.17
2022-10-31T20:17:38.864Z,37.83
2022-10-31T20:19:42.258Z,31.20
2022-10-31T20:21:45.695Z,25.80
2022-10-31T20:23:48.957Z,23.90
2022-10-31T20:25:53.796Z,22.13
2022-10-31T20:27:57.291Z,22.33
2022-10-31T20:30:00.487Z,25.87
2022-10-31T20:32:03.972Z,20.70
2022-10-31T20:34:07.288Z,25.30
2022-10-31T20:36:10.924Z,23.77
2022-10-31T20:38:14.270Z,23.10
2022-10-31T20:40:17.329Z,23.07
2022-10-31T20:42:21.955Z,23.53
2022-10-31T20:44:25.327Z,23.20
2022-10-31T20:46:28.617Z,19.60
2022-10-31T20:48:32.387Z,22.60
2022-10-31T20:50:35.488Z,23.30
2022-10-31T20:52:40.483Z,22.30
2022-10-31T20:54:43.616Z,23.07
2022-10-31T20:56:46.823Z,23.23
2022-10-31T20:58:51.849Z,18.67
2022-10-31T21:00:55.052Z,18.27
2022-10-31T21:02:58.205Z,19.10
2022-10-31T21:05:01.881Z,18.90
2022-10-31T21:07:05.117Z,18.90
2022-10-31T21:09:08.856Z,18.80
2022-10-31T21:11:14.186Z,23.07
2022-10-31T21:13:17.779Z,20.07
2022-10-31T21:15:22.284Z,19.73
2022-10-31T21:17:25.439Z,22.63
2022-10-31T21:19:28.447Z,21.93
2022-10-31T21:21:33.388Z,19.40
2022-10-31T21:23:36.720Z,17.93
2022-10-31T21:25:40.652Z,20.97
2022-10-31T21:27:43.976Z,17.67
2022-10-31T21:29:46.971Z,21.27
2022-10-31T21:31:51.986Z,25.47
2022-10-31T21:33:55.476Z,22.10
2022-10-31T21:35:58.471Z,20.87
2022-10-31T21:38:02.074Z,21.77
2022-10-31T21:40:06.265Z,25.17
2022-10-31T21:42:09.357Z,26.50
2022-10-31T21:44:12.542Z,26.47
2022-10-31T21:46:17.179Z,22.17
2022-10-31T21:48:21.666Z,21.30
2022-10-31T21:50:25.056Z,25.37
2022-10-31T21:52:28.324Z,18.70
2022-10-31T21:54:32.958Z,21.67
2022-10-31T21:56:36.648Z,23.50
2022-10-31T21:58:39.722Z,22.40
2022-10-31T22:00:42.974Z,21.63
2022-10-31T22:02:46.113Z,32.20
2022-10-31T22:04:51.442Z,30.57
2022-10-31T22:06:57.315Z,25.60
2022-10-31T22:09:01.913Z,18.73
2022-10-31T22:11:05.697Z,21.63
2022-10-31T22:13:09.047Z,20.93
2022-10-31T22:15:12.215Z,25.03
2022-10-31T22:17:15.287Z,27.37
2022-10-31T22:19:18.561Z,19.40
2022-10-31T22:21:25.173Z,21.23
2022-10-31T22:23:28.773Z,22.00
2022-10-31T22:25:31.978Z,21.10
2022-10-31T22:27:38.665Z,25.00
2022-10-31T22:29:41.967Z,18.57
2022-10-31T22:31:50.610Z,19.67
2022-10-31T22:33:57.603Z,19.83
2022-10-31T22:36:02.918Z,24.97
2022-10-31T22:38:07.365Z,19.97
2022-10-31T22:40:11.891Z,20.00
2022-10-31T22:42:14.987Z,21.73
2022-10-31T22:44:18.257Z,22.90
2022-10-31T22:46:23.057Z,18.10
2022-10-31T22:48:26.279Z,23.90
2022-10-31T22:50:29.235Z,22.13
2022-10-31T22:52:32.419Z,19.40
2022-10-31T22:54:36.779Z,21.77
2022-10-31T22:56:39.752Z,20.40
2022-10-31T22:58:43.434Z,21.50
2022-10-31T23:00:49.602Z,18.03
2022-10-31T23:02:52.723Z,21.20
2022-10-31T23:04:55.997Z,20.23
2022-10-31T23:06:59.039Z,18.80
2022-10-31T23:09:07.417Z,21.77
2022-10-31T23:11:22.287Z,21.57
2022-10-31T23:13:43.066Z,24.63
2022-10-31T23:15:46.545Z,40.77
2022-10-31T23:17:49.829Z,18.63
2022-10-31T23:19:53.298Z,17.53
2022-10-31T23:22:00.859Z,18.43
2022-10-31T23:24:04.547Z,21.10
2022-10-31T23:26:25.724Z,19.97
2022-10-31T23:28:30.287Z,16.70
2022-10-31T23:30:33.735Z,18.80
2022-10-31T23:32:39.288Z,38.53
2022-10-31T23:34:42.821Z,19.17
2022-10-31T23:36:45.974Z,17.33
2022-10-31T23:38:55.279Z,18.87
2022-10-31T23:40:58.449Z,19.93
2022-10-31T23:43:01.592Z,22.90
2022-10-31T23:45:07.091Z,18.40
2022-10-31T23:47:10.250Z,21.67
2022-10-31T23:49:13.262Z,18.47
2022-10-31T23:51:19.133Z,33.53
2022-10-31T23:53:22.304Z,21.87
2022-10-31T23:55:26.026Z,21.53
2022-10-31T23:57:29.165Z,22.70
2022-10-31T23:59:33.177Z,27.03
